KJKA Airport (Jack Edwards National) Information

FAA: JKA - ICAO: KJKA

KJKA Airport Location

State Alabama
County Baldwin
City Gulf Shores
KJKA Airport is 2 miles north of Gulf Shores, AL.
Latitude 30-17-22.7000N
Longitude 087-40-18.4000W
Elevation 17ft

KJKA Airport METARs

METAR KJKA 251715Z AUTO 27009KT 10SM SCT021 BKN028 BKN032 28/22 A2993 RMK AO2 T02810220
Altimeter 29.93"
Temperature 28.1°C (82.6°F)
Wind 270° at 9KT
Clouds scattered at 2,100ft broken at 2,800ft broken at 3,200ft
Visibility 10.0mi
Time observed: 2021-10-25T17:15:00Z

KJKA Airport Details

Status Operational
Activation March 1978
Ownership Public
Usage Public
Chart NEW ORLEANS
ATC on-site No
Beacon schedule sunset-sunrise
Beacon color clear green

KJKA Airport Contacts

Owner GULF SHORES AIRPORT AUTHORITY
Owner address PO BOX 919, GULF SHORES, AL 36547
Owner phone 251-967-3968
Manager SCOTT FULLER
Manager address PO BOX 919, GULF SHORES, AL 36547
Manager phone 251-967-3968

KJKA Airport (Jack Edwards National) Radio Frequencies

KJKA (Airport) Radio Frequencies

UNICOM 122.7
Common traffic advisory frequency (CTAF) 122.7